Time;durP1;ratioP1;P1;durP2;ratioP2;P2;SDS_P1;SDS_P2;PMS_P1;PMS_P2;Temp;Humidity;BMP_temperature;BMP_pressure;BME280_temperature;BME280_humidity;BME280_pressure;Samples;Min_cycle;Max_cycle;Signal;HPM_P1;HPM_P2
2022/08/13 00:04:42;;;;;;;13.00;8.73;;;;;;;21.02;77.56;99481.31;1747706;82;21042;-46
2022/08/13 00:07:08;;;;;;;12.10;9.67;;;;;;;21.02;77.60;99484.07;1741874;82;21082;-46
2022/08/13 00:09:39;;;;;;;10.82;9.10;;;;;;;21.01;77.70;99487.42;1741574;82;23207;-46
2022/08/13 00:14:57;;;;;;;13.62;8.50;;;;;;;20.98;77.76;99480.02;1741845;82;21006;-46
2022/08/13 00:17:24;;;;;;;11.88;9.33;;;;;;;20.95;77.98;99485.02;1741866;82;21090;-46
2022/08/13 00:19:51;;;;;;;13.75;9.55;;;;;;;20.93;78.10;99472.85;1741984;82;21074;-46
2022/08/13 00:22:22;;;;;;;19.30;9.10;;;;;;;20.90;78.29;99477.25;1741806;82;21150;-46
2022/08/13 00:24:47;;;;;;;12.90;10.35;;;;;;;20.91;78.43;99471.92;1741720;82;21063;-46
2022/08/13 00:27:15;;;;;;;10.28;9.18;;;;;;;20.92;78.48;99454.16;1741694;82;21560;-46
2022/08/13 00:29:42;;;;;;;14.15;10.08;;;;;;;20.92;78.45;99452.00;1741769;82;20912;-46
2022/08/13 00:32:09;;;;;;;15.85;10.05;;;;;;;20.90;78.51;99446.16;1741967;82;21022;-46
2022/08/13 00:34:36;;;;;;;11.35;9.78;;;;;;;20.89;78.67;99434.35;1741932;82;21241;-46
2022/08/13 00:37:03;;;;;;;11.75;10.23;;;;;;;20.89;78.85;99432.97;1741845;82;21539;-46
2022/08/13 00:39:31;;;;;;;11.97;10.25;;;;;;;20.93;78.95;99435.05;1741889;82;21051;-46
2022/08/13 00:41:58;;;;;;;11.45;10.20;;;;;;;20.97;79.01;99430.83;1742058;82;21078;-46
2022/08/13 00:44:28;;;;;;;13.62;10.30;;;;;;;21.01;79.03;99436.43;1742112;82;21517;-46
2022/08/13 00:48:41;;;;;;;15.40;10.50;;;;;;;21.05;78.87;99437.75;1742176;82;21048;-46
2022/08/13 00:49:24;;;;;;;13.00;11.10;;;;;;;21.08;78.81;99434.91;1737712;82;21568;-46
2022/08/13 00:51:51;;;;;;;12.07;10.85;;;;;;;21.09;78.81;99440.60;1741820;82;21037;-46
2022/08/13 00:54:18;;;;;;;13.13;11.20;;;;;;;21.11;78.76;99436.80;1741692;82;21000;-46
2022/08/13 00:56:45;;;;;;;13.03;10.68;;;;;;;21.14;78.61;99431.08;1741850;82;21047;-46
2022/08/13 00:59:13;;;;;;;12.37;10.35;;;;;;;21.14;78.46;99412.55;1741544;82;23235;-46
2022/08/13 01:01:44;;;;;;;13.43;10.80;;;;;;;21.13;78.35;99399.97;1741784;82;21069;-46
2022/08/13 01:04:11;;;;;;;15.00;12.15;;;;;;;21.09;78.25;99382.71;1742124;82;20940;-46
2022/08/13 01:06:39;;;;;;;12.60;11.40;;;;;;;21.05;78.38;99387.53;1749178;82;21635;-46
2022/08/13 01:09:08;;;;;;;12.78;11.48;;;;;;;21.03;78.58;99387.17;1749694;82;21089;-46
2022/08/13 01:11:35;;;;;;;14.05;11.48;;;;;;;21.07;78.72;99390.63;1749925;82;21540;-46
2022/08/13 01:14:07;;;;;;;13.05;11.43;;;;;;;21.10;78.79;99387.62;1749695;82;20974;-46
2022/08/13 01:16:36;;;;;;;;;;;;;;;21.11;78.72;99393.29;1717116;83;21036;-46
2022/08/13 01:19:06;;;;;;;14.25;11.65;;;;;;;21.12;78.68;99392.87;1699682;84;20118;-46
2022/08/13 01:21:44;;;;;;;13.98;11.75;;;;;;;21.06;79.03;99394.58;1699524;84;21101;-46
2022/08/13 01:24:12;;;;;;;13.55;11.33;;;;;;;21.11;79.02;99389.93;1699279;84;21100;-46
2022/08/13 01:26:39;;;;;;;12.88;11.28;;;;;;;21.14;78.83;99371.80;1699642;84;20963;-46
2022/08/13 01:29:08;;;;;;;12.58;11.38;;;;;;;21.16;78.70;99388.08;1699766;84;20986;-46
2022/08/13 01:31:36;;;;;;;12.58;11.28;;;;;;;21.20;78.44;99384.63;1707747;84;21015;-46
2022/08/13 01:34:03;;;;;;;13.45;11.33;;;;;;;21.22;78.05;99389.72;1707588;84;21045;-46
2022/08/13 01:36:31;;;;;;;12.13;10.98;;;;;;;21.25;77.78;99389.63;1707578;84;21139;-46
2022/08/13 01:38:58;;;;;;;14.80;10.78;;;;;;;21.29;77.39;99397.05;1707613;84;20951;-46
2022/08/13 01:41:27;;;;;;;14.28;11.15;;;;;;;21.31;77.16;99396.78;1707338;84;21024;-46
2022/08/13 01:44:00;;;;;;;11.87;10.67;;;;;;;21.35;76.70;99396.72;1706899;83;21617;-46
2022/08/13 01:46:23;;;;;;;11.90;10.20;;;;;;;21.38;76.37;99394.47;1706594;84;21045;-46
2022/08/13 01:51:36;;;;;;;13.20;10.70;;;;;;;21.41;75.54;99401.27;1707266;84;20970;-46
2022/08/13 01:54:05;;;;;;;13.32;10.58;;;;;;;21.44;75.14;99399.64;1707372;84;20978;-46
2022/08/13 01:56:33;;;;;;;12.47;10.25;;;;;;;21.47;74.67;99398.77;1707251;84;21042;-46
2022/08/13 01:59:02;;;;;;;15.80;10.90;;;;;;;21.48;74.19;99393.43;1707494;84;21015;-46
2022/08/13 02:01:30;;;;;;;11.60;9.75;;;;;;;21.49;74.05;99397.75;1707278;84;21269;-46
2022/08/13 02:03:57;;;;;;;14.07;10.40;;;;;;;21.51;73.78;99396.09;1707430;83;21527;-46
2022/08/13 02:06:28;;;;;;;13.50;10.68;;;;;;;21.52;73.74;99393.52;1711107;83;21682;-46
2022/08/13 02:08:59;;;;;;;11.88;10.45;;;;;;;21.53;73.53;99392.31;1712493;83;21033;-46
2022/08/13 02:11:34;;;;;;;14.40;10.60;;;;;;;21.55;73.50;99389.10;1713204;83;21069;-46
2022/08/13 02:14:03;;;;;;;11.93;10.58;;;;;;;21.57;73.40;99389.45;1713092;83;23109;-46
2022/08/13 02:16:37;;;;;;;12.25;11.00;;;;;;;21.41;73.38;99353.00;1713226;83;20970;-46
2022/08/13 02:21:01;;;;;;;13.55;10.20;;;;;;;21.63;73.52;99362.30;1795281;78;22698;-46
2022/08/13 02:23:32;;;;;;;10.88;9.78;;;;;;;21.64;73.23;99358.91;1767448;79;21501;-46
2022/08/13 02:26:02;;;;;;;12.23;10.18;;;;;;;21.62;72.98;99360.74;1759877;79;21118;-46
2022/08/13 02:28:30;;;;;;;12.78;10.10;;;;;;;21.62;72.85;99359.97;1764824;79;21003;-46
2022/08/13 02:30:58;;;;;;;14.50;10.05;;;;;;;21.61;72.59;99361.16;1783256;79;20901;-46
2022/08/13 02:33:25;;;;;;;14.40;10.10;;;;;;;21.61;72.37;99359.78;1759883;79;20963;-46
2022/08/13 02:35:54;;;;;;;12.95;10.15;;;;;;;21.61;72.53;99361.16;1767024;79;20902;-46
2022/08/13 02:38:22;;;;;;;13.83;10.10;;;;;;;21.62;72.20;99362.72;1789381;80;21122;-46
2022/08/13 02:43:35;;;;;;;17.27;10.13;;;;;;;21.64;71.94;99369.95;1769355;79;21007;-46
2022/08/13 02:46:03;;;;;;;14.83;9.53;;;;;;;21.64;71.57;99369.95;1785209;79;20972;-46
2022/08/13 02:48:30;;;;;;;12.20;9.65;;;;;;;21.65;71.52;99368.14;1783020;79;21083;-46
2022/08/13 02:50:57;;;;;;;15.00;10.43;;;;;;;21.66;71.32;99366.16;1768637;80;23137;-46
2022/08/13 02:53:25;;;;;;;10.82;9.48;;;;;;;21.65;71.26;99367.36;1792942;80;21538;-46
2022/08/13 02:55:53;;;;;;;12.73;9.63;;;;;;;21.65;71.04;99366.77;1780680;79;20993;-46
2022/08/13 02:58:20;;;;;;;11.57;9.73;;;;;;;21.65;70.89;99365.98;1784425;79;20992;-46
2022/08/13 03:00:48;;;;;;;12.63;9.55;;;;;;;21.64;70.85;99359.69;1793345;80;21015;-47
2022/08/13 03:03:17;;;;;;;12.95;9.45;;;;;;;21.63;70.72;99350.48;1773813;79;21133;-46
2022/08/13 03:05:44;;;;;;;15.80;9.88;;;;;;;21.63;70.71;99347.72;1770148;79;21004;-46
2022/08/13 03:08:11;;;;;;;12.47;9.18;;;;;;;21.63;70.76;99354.02;1759993;79;21030;-46
2022/08/13 03:10:40;;;;;;;10.85;8.90;;;;;;;21.62;70.66;99348.33;1777988;79;21275;-46
2022/08/13 03:13:20;;;;;;;14.10;9.53;;;;;;;21.62;70.47;99335.91;1792647;80;21171;-46
2022/08/13 03:15:48;;;;;;;12.35;9.28;;;;;;;21.63;70.60;99329.80;1743274;80;21134;-47
2022/08/13 03:18:15;;;;;;;14.83;9.33;;;;;;;21.61;70.41;99325.30;1759656;79;21522;-46
2022/08/13 03:20:43;;;;;;;11.97;9.20;;;;;;;21.58;70.34;99335.23;1777841;79;21071;-46
2022/08/13 03:23:11;;;;;;;12.33;8.78;;;;;;;21.59;70.26;99330.49;1789170;79;21660;-46
2022/08/13 03:25:38;;;;;;;12.37;8.75;;;;;;;21.59;70.10;99334.63;1778941;80;21507;-46
2022/08/13 03:28:06;;;;;;;10.95;8.40;;;;;;;21.59;69.73;99336.02;1779591;79;22032;-46
2022/08/13 03:30:34;;;;;;;10.63;8.35;;;;;;;21.58;69.36;99337.22;1785017;79;21002;-46
2022/08/13 03:33:07;;;;;;;11.93;8.13;;;;;;;21.58;69.16;99334.45;1769871;79;21010;-46
2022/08/13 03:35:35;;;;;;;12.50;8.35;;;;;;;21.59;69.09;99337.39;1767595;80;21515;-46
2022/08/13 03:38:05;;;;;;;11.22;8.40;;;;;;;21.59;68.82;99336.02;1759717;79;21073;-46
2022/08/13 03:43:19;;;;;;;10.45;7.85;;;;;;;21.59;68.36;99339.52;1761194;79;21235;-46
2022/08/13 03:45:46;;;;;;;12.47;8.38;;;;;;;21.58;68.16;99340.75;1779178;79;21175;-46
2022/08/13 03:48:15;;;;;;;11.12;8.28;;;;;;;21.58;68.34;99343.52;1780339;79;21019;-46
2022/08/13 03:50:43;;;;;;;11.10;8.50;;;;;;;21.60;68.20;99345.81;1771616;79;21947;-46
2022/08/13 03:53:11;;;;;;;10.48;7.40;;;;;;;21.60;67.96;99349.95;1786086;79;21188;-47
2022/08/13 03:55:39;;;;;;;10.80;8.43;;;;;;;21.38;67.91;99322.77;1768860;79;20956;-46
2022/08/13 03:58:07;;;;;;;11.30;7.70;;;;;;;21.57;68.02;99346.09;1766141;79;20940;-46
2022/08/13 04:00:37;;;;;;;12.65;9.05;;;;;;;21.58;68.36;99351.02;1765825;79;22052;-46
2022/08/13 04:03:21;;;;;;;15.65;9.10;;;;;;;21.60;68.61;99352.71;1777423;79;21024;-46
2022/08/13 04:05:53;;;;;;;12.45;8.78;;;;;;;21.62;68.53;99359.36;1772838;79;21246;-47
2022/08/13 04:08:20;;;;;;;11.40;7.75;;;;;;;21.63;68.63;99364.28;1784901;80;21001;-47
2022/08/13 04:10:48;;;;;;;10.32;8.13;;;;;;;21.62;68.63;99369.63;1784866;79;21590;-47
2022/08/13 04:13:15;;;;;;;11.80;8.68;;;;;;;21.62;68.72;99362.72;1780099;79;22677;-47
2022/08/13 04:15:43;;;;;;;12.40;7.97;;;;;;;21.60;68.92;99359.01;1760067;79;21823;-47
2022/08/13 04:18:12;;;;;;;10.25;7.65;;;;;;;21.59;69.01;99358.08;1768569;79;21140;-47
2022/08/13 04:20:54;;;;;;;11.88;7.95;;;;;;;21.56;69.02;99367.98;1759136;79;21003;-47
2022/08/13 04:23:16;;;;;;;10.90;7.67;;;;;;;21.54;69.30;99373.78;1790288;80;21154;-47
2022/08/13 04:25:48;;;;;;;11.30;7.70;;;;;;;21.53;69.47;99367.48;1780259;79;21102;-47
2022/08/13 04:28:16;;;;;;;10.18;7.60;;;;;;;21.47;69.29;99373.95;1759304;79;21019;-47
2022/08/13 04:30:43;;;;;;;13.70;7.87;;;;;;;21.41;69.47;99374.28;1771397;79;21225;-47
2022/08/13 04:33:16;;;;;;;10.45;7.72;;;;;;;21.36;69.84;99381.70;1791781;80;20989;-47
2022/08/13 04:35:47;;;;;;;13.05;7.75;;;;;;;21.35;70.18;99381.55;1781061;79;20968;-46
2022/08/13 04:38:14;;;;;;;10.82;7.00;;;;;;;21.31;70.41;99384.37;1759513;80;21119;-47
2022/08/13 04:40:43;;;;;;;9.03;7.08;;;;;;;21.29;70.68;99380.51;1763242;80;20999;-47
2022/08/13 04:43:11;;;;;;;11.03;8.08;;;;;;;21.28;70.96;99373.44;1760529;79;21859;-47
2022/08/13 04:45:41;;;;;;;11.08;7.80;;;;;;;21.26;71.11;99369.72;1778976;79;20992;-47
2022/08/13 04:48:12;;;;;;;12.10;7.50;;;;;;;21.25;71.04;99373.08;1790626;79;20993;-47
2022/08/13 04:50:42;;;;;;;12.73;7.87;;;;;;;21.22;71.26;99364.91;1781020;79;20988;-47
2022/08/13 04:53:14;;;;;;;10.10;7.03;;;;;;;21.19;71.16;99357.50;1774233;79;21557;-47
2022/08/13 04:55:41;;;;;;;13.38;7.60;;;;;;;21.17;71.24;99362.66;1779070;80;21378;-47
2022/08/13 04:58:08;;;;;;;12.18;8.05;;;;;;;21.14;71.39;99364.31;1785141;79;20985;-47
2022/08/13 05:00:35;;;;;;;10.95;7.60;;;;;;;21.15;71.45;99365.87;1778928;79;21048;-47
2022/08/13 05:03:13;;;;;;;12.40;7.47;;;;;;;21.14;71.48;99366.28;1787988;79;20984;-47
2022/08/13 05:05:43;;;;;;;12.65;8.10;;;;;;;21.12;71.48;99363.92;1778995;79;21084;-47
2022/08/13 05:08:11;;;;;;;10.47;7.33;;;;;;;21.10;71.43;99365.57;1770514;79;21267;-47
2022/08/13 05:10:39;;;;;;;11.43;6.92;;;;;;;21.07;71.49;99367.19;1788704;79;21797;-47
2022/08/13 05:13:31;;;;;;;16.75;7.97;;;;;;;21.06;71.75;99367.61;1766753;80;21021;-47
2022/08/13 05:16:02;;;;;;;12.80;7.87;;;;;;;21.06;71.83;99360.13;1770943;79;21063;-47
2022/08/13 05:18:31;;;;;;;12.07;7.80;;;;;;;21.06;71.94;99352.45;1773007;80;21119;-46
2022/08/13 05:21:03;;;;;;;10.72;7.90;;;;;;;21.09;72.22;99352.98;1784975;79;21144;-47
2022/08/13 05:23:34;;;;;;;11.22;7.87;;;;;;;21.10;72.32;99352.56;1773213;79;21503;-47
2022/08/13 05:26:01;;;;;;;12.15;8.50;;;;;;;21.11;72.36;99347.80;1783111;79;20956;-47
2022/08/13 05:28:30;;;;;;;13.10;8.25;;;;;;;21.11;72.44;99352.72;1760595;80;20973;-47
2022/08/13 05:30:58;;;;;;;13.22;8.35;;;;;;;21.10;72.57;99358.08;1779796;79;21084;-47
2022/08/13 05:33:27;;;;;;;14.10;8.53;;;;;;;21.07;72.98;99354.01;1788508;79;21131;-47
2022/08/13 05:36:03;;;;;;;11.55;8.35;;;;;;;21.04;73.38;99356.25;1789554;79;21036;-47
2022/08/13 05:38:31;;;;;;;15.40;8.53;;;;;;;21.01;73.58;99361.27;1776542;79;21105;-47
2022/08/13 05:41:02;;;;;;;11.90;8.68;;;;;;;20.96;73.89;99363.90;1759282;80;20936;-47
2022/08/13 05:43:36;;;;;;;15.38;8.50;;;;;;;20.93;74.17;99357.88;1774109;79;21024;-47
2022/08/13 05:46:08;;;;;;;13.58;8.43;;;;;;;20.91;74.39;99358.14;1767120;79;21134;-47
2022/08/13 05:48:42;;;;;;;12.33;8.40;;;;;;;20.89;74.57;99361.33;1778795;79;21028;-47
2022/08/13 05:51:12;;;;;;;14.15;8.68;;;;;;;20.88;74.80;99358.39;1759309;80;21083;-47
2022/08/13 05:53:39;;;;;;;11.43;8.73;;;;;;;20.85;74.91;99355.13;1781153;79;21491;-47
2022/08/13 05:56:07;;;;;;;15.25;9.30;;;;;;;20.81;75.30;99352.45;1781577;79;21479;-47
2022/08/13 05:58:34;;;;;;;14.38;8.65;;;;;;;20.81;75.31;99355.81;1780464;80;23212;-47
2022/08/13 06:03:47;;;;;;;13.80;8.58;;;;;;;20.80;75.71;99357.79;1792539;80;21032;-47
2022/08/13 06:06:18;;;;;;;12.18;8.68;;;;;;;20.82;75.81;99365.61;1772885;79;21032;-47
2022/08/13 06:08:45;;;;;;;16.25;9.00;;;;;;;20.84;75.92;99359.08;1759128;79;21625;-47
2022/08/13 06:11:17;;;;;;;14.43;9.85;;;;;;;20.89;76.05;99352.28;1759227;79;21196;-47
2022/08/13 06:13:46;;;;;;;12.05;9.03;;;;;;;20.93;75.95;99350.98;1759032;79;21116;-47
2022/08/13 06:16:14;;;;;;;13.27;9.23;;;;;;;20.96;76.07;99357.01;1769964;79;21035;-47
2022/08/13 06:18:46;;;;;;;15.63;8.88;;;;;;;20.98;76.28;99353.23;1774413;79;21039;-47
2022/08/13 06:21:14;;;;;;;13.75;9.63;;;;;;;21.04;76.33;99348.77;1759425;80;21056;-47
2022/08/13 06:23:44;;;;;;;11.97;8.98;;;;;;;21.09;76.18;99359.28;1784101;79;21112;-47
2022/08/13 06:26:17;;;;;;;17.85;8.93;;;;;;;21.12;76.11;99351.52;1776698;80;21051;-47
2022/08/13 06:28:45;;;;;;;11.28;9.23;;;;;;;21.17;76.07;99355.77;1775519;79;21087;-47
2022/08/13 06:31:16;;;;;;;13.25;9.50;;;;;;;21.18;75.91;99369.73;1789911;80;21049;-47
2022/08/13 06:33:44;;;;;;;13.70;9.90;;;;;;;21.19;75.88;99377.58;1773594;80;21028;-47
2022/08/13 06:36:14;;;;;;;11.75;9.35;;;;;;;21.18;75.85;99366.38;1790357;80;21219;-47
2022/08/13 06:38:48;;;;;;;15.78;10.23;;;;;;;21.18;76.06;99361.46;1790130;80;21071;-47
2022/08/13 06:41:16;;;;;;;14.33;9.25;;;;;;;21.19;76.11;99366.55;1784430;80;21511;-47
2022/08/13 06:43:50;;;;;;;12.93;9.98;;;;;;;21.22;76.05;99371.20;1786491;80;21028;-47
2022/08/13 06:46:24;;;;;;;11.33;9.25;;;;;;;21.28;76.39;99366.55;1759243;79;21020;-47
2022/08/13 06:48:52;;;;;;;14.33;10.13;;;;;;;21.33;76.27;99369.56;1780973;80;21210;-47
2022/08/13 06:51:20;;;;;;;15.40;9.78;;;;;;;21.38;76.20;99382.84;1770217;79;21020;-47
2022/08/13 06:53:47;;;;;;;16.20;10.00;;;;;;;21.43;76.08;99380.16;1772205;79;21003;-47
2022/08/13 06:56:21;;;;;;;14.00;10.00;;;;;;;21.45;75.93;99385.40;1789449;79;20968;-47
2022/08/13 06:58:49;;;;;;;13.65;10.08;;;;;;;21.46;75.86;99379.28;1775245;79;21182;-47
2022/08/13 07:01:22;;;;;;;14.13;10.82;;;;;;;21.48;75.87;99375.50;1787357;80;21215;-47
2022/08/13 07:03:49;;;;;;;13.30;10.78;;;;;;;21.49;75.87;99365.42;1783263;79;20999;-47
2022/08/13 07:06:25;;;;;;;15.40;10.38;;;;;;;21.53;75.78;99362.56;1769851;80;20999;-47
2022/08/13 07:08:54;;;;;;;16.70;10.40;;;;;;;21.57;76.02;99368.77;1764185;79;21133;-47
2022/08/13 07:11:23;;;;;;;15.18;11.10;;;;;;;21.62;76.04;99365.48;1768902;79;20960;-47
2022/08/13 07:13:57;;;;;;;14.93;10.75;;;;;;;21.66;76.09;99353.14;1791173;80;23100;-47
2022/08/13 07:16:30;;;;;;;12.43;10.45;;;;;;;21.72;76.01;99352.02;1790691;80;20989;-47
2022/08/13 07:18:59;;;;;;;14.47;10.93;;;;;;;21.76;75.83;99353.30;1774240;80;21745;-47
2022/08/13 07:21:27;;;;;;;13.17;11.40;;;;;;;21.80;76.13;99338.79;1784961;79;21056;-47
2022/08/13 07:23:54;;;;;;;14.78;10.32;;;;;;;21.86;75.90;99347.49;1780899;79;21004;-47
2022/08/13 07:26:24;;;;;;;11.78;10.05;;;;;;;21.89;75.77;99353.51;1775366;80;21204;-47
2022/08/13 07:28:51;;;;;;;;;;;;;;;21.92;75.60;99351.28;1742743;80;21004;-47
2022/08/13 07:31:25;;;;;;;16.77;11.40;;;;;;;21.98;75.66;99346.78;1745017;81;20098;-47
2022/08/13 07:33:53;;;;;;;12.90;10.50;;;;;;;21.93;75.94;99348.69;1729663;81;21291;-47
2022/08/13 07:36:23;;;;;;;14.30;11.03;;;;;;;22.03;76.03;99346.25;1733763;81;21084;-47
2022/08/13 07:38:51;;;;;;;17.35;10.98;;;;;;;22.11;76.02;99344.08;1745358;81;21942;-47
2022/08/13 07:41:19;;;;;;;16.00;10.90;;;;;;;22.19;76.04;99341.88;1742523;81;21579;-47
2022/08/13 07:43:47;;;;;;;13.50;10.60;;;;;;;22.27;75.93;99351.53;1751183;81;21535;-47
2022/08/13 07:46:17;;;;;;;12.45;10.55;;;;;;;22.36;75.20;99337.84;1752340;81;21040;-47
2022/08/13 07:48:49;;;;;;;13.80;9.93;;;;;;;22.44;75.52;99332.27;1749373;81;20992;-47
2022/08/13 07:51:24;;;;;;;12.23;10.58;;;;;;;22.55;75.41;99336.88;1729172;81;21181;-47
2022/08/13 07:53:53;;;;;;;13.85;9.45;;;;;;;22.64;74.05;99346.66;1743752;81;21019;-47
2022/08/13 07:56:29;;;;;;;17.02;9.60;;;;;;;22.71;73.61;99346.45;1750027;81;21080;-47
2022/08/13 07:59:00;;;;;;;14.23;9.88;;;;;;;22.77;73.45;99347.46;1755543;81;21104;-47
2022/08/13 08:01:29;;;;;;;12.53;9.98;;;;;;;22.82;73.00;99355.20;1761914;81;21047;-47
2022/08/13 08:03:59;;;;;;;16.32;10.25;;;;;;;22.85;72.51;99359.84;1753787;81;21116;-47
2022/08/13 08:06:26;;;;;;;12.68;10.25;;;;;;;22.92;72.21;99351.94;1723889;81;20992;-47
2022/08/13 08:08:53;;;;;;;11.97;9.73;;;;;;;22.93;71.35;99347.36;1732000;81;21077;-47
2022/08/13 08:14:08;;;;;;;11.10;9.48;;;;;;;23.04;71.42;99343.48;1740920;81;21007;-47
2022/08/13 08:16:37;;;;;;;12.98;9.95;;;;;;;23.08;71.06;99338.61;1752045;81;21204;-47
2022/08/13 08:19:04;;;;;;;13.10;10.68;;;;;;;23.12;71.03;99340.65;1759116;81;22465;-47
2022/08/13 08:21:32;;;;;;;12.60;9.85;;;;;;;23.15;70.74;99332.23;1738494;81;21059;-47
2022/08/13 08:24:01;;;;;;;12.03;10.13;;;;;;;23.18;70.69;99325.05;1741609;81;21056;-48
2022/08/13 08:26:31;;;;;;;17.25;10.55;;;;;;;23.20;70.63;99326.73;1733845;81;21515;-47
2022/08/13 08:28:59;;;;;;;15.35;10.45;;;;;;;23.19;70.42;99323.20;1739905;81;21200;-47
2022/08/13 08:31:26;;;;;;;13.28;9.63;;;;;;;23.17;70.31;99315.98;1752456;81;20943;-47
2022/08/13 08:33:56;;;;;;;13.62;10.15;;;;;;;23.15;69.53;99316.23;1742184;81;20964;-47
2022/08/13 08:36:25;;;;;;;15.35;10.35;;;;;;;23.11;69.02;99319.73;1758417;81;21040;-47
2022/08/13 08:44:32;;;;;;;11.10;9.28;;;;;;;22.95;68.32;99317.87;1759431;81;21008;-47
2022/08/13 08:47:04;;;;;;;13.22;9.90;;;;;;;22.91;68.76;99311.69;1752681;81;21007;-47
2022/08/13 08:49:31;;;;;;;14.23;9.95;;;;;;;22.91;68.87;99317.98;1739051;81;20971;-47
2022/08/13 08:51:58;;;;;;;12.13;9.83;;;;;;;22.91;69.06;99321.36;1740561;81;21007;-47
2022/08/13 08:54:26;;;;;;;14.83;10.15;;;;;;;22.91;69.34;99319.98;1760280;81;21273;-47
2022/08/13 08:56:54;;;;;;;12.37;10.25;;;;;;;22.94;69.37;99324.64;1747705;81;20988;-47
2022/08/13 08:59:23;;;;;;;14.53;10.30;;;;;;;22.94;69.10;99320.49;1742182;81;20936;-47
2022/08/13 09:01:55;;;;;;;13.28;10.30;;;;;;;22.95;69.05;99322.80;1748170;81;20980;-47
2022/08/13 09:04:28;;;;;;;14.55;10.63;;;;;;;22.94;68.76;99323.26;1757392;81;21103;-47
2022/08/13 09:06:57;;;;;;;21.15;11.15;;;;;;;22.93;68.95;99316.95;1744246;81;21534;-47
2022/08/13 09:09:25;;;;;;;14.05;10.88;;;;;;;22.96;69.26;99308.36;1754055;81;21064;-47
2022/08/13 09:11:55;;;;;;;18.50;10.38;;;;;;;22.99;69.19;99309.48;1740615;81;21093;-47
2022/08/13 09:14:30;;;;;;;13.28;10.18;;;;;;;23.01;68.99;99311.95;1739061;81;21592;-47
2022/08/13 09:16:57;;;;;;;15.48;10.58;;;;;;;23.01;69.05;99316.10;1757518;81;20997;-47
2022/08/13 09:19:25;;;;;;;14.13;10.60;;;;;;;23.02;69.33;99312.73;1737445;81;21206;-47
2022/08/13 09:21:52;;;;;;;11.48;10.20;;;;;;;23.09;69.39;99305.59;1735667;81;21013;-47
2022/08/13 09:24:24;;;;;;;15.35;10.82;;;;;;;23.15;69.63;99292.73;1760377;81;20964;-47
2022/08/13 09:26:48;;;;;;;13.67;10.50;;;;;;;23.29;69.91;99297.78;1761641;81;20980;-47
2022/08/13 09:29:18;;;;;;;13.70;10.38;;;;;;;23.53;70.22;99294.06;1744404;81;21213;-47
2022/08/13 09:31:50;;;;;;;14.83;9.85;;;;;;;23.81;69.78;99281.97;1748614;81;21124;-47
2022/08/13 09:34:18;;;;;;;16.05;10.70;;;;;;;24.07;68.70;99287.52;1742966;81;21015;-47
2022/08/13 09:36:45;;;;;;;15.45;10.25;;;;;;;24.29;67.69;99283.98;1751183;81;21028;-47
2022/08/13 09:39:32;;;;;;;14.13;10.25;;;;;;;24.43;67.09;99280.06;1760830;81;21040;-47
2022/08/13 09:42:00;;;;;;;14.98;9.95;;;;;;;24.54;66.15;99281.03;1752506;81;21023;-47
2022/08/13 09:44:28;;;;;;;13.45;10.05;;;;;;;24.60;66.44;99284.73;1741676;81;21226;-47
2022/08/13 09:46:55;;;;;;;14.58;10.93;;;;;;;24.65;66.47;99287.69;1741300;81;20983;-47
2022/08/13 09:49:23;;;;;;;14.90;11.70;;;;;;;24.68;66.18;99285.41;1733815;81;21070;-47
2022/08/13 09:51:50;;;;;;;15.35;10.60;;;;;;;24.68;65.62;99278.47;1752376;81;21596;-47
2022/08/13 09:54:18;;;;;;;14.05;10.28;;;;;;;24.65;65.73;99275.20;1743317;81;21123;-47
2022/08/13 09:56:47;;;;;;;16.75;11.22;;;;;;;24.65;65.85;99267.50;1749552;81;21140;-47
2022/08/13 09:59:15;;;;;;;16.90;11.57;;;;;;;24.65;66.05;99268.28;1729276;81;21015;-47
2022/08/13 10:01:42;;;;;;;13.03;10.58;;;;;;;24.65;66.53;99265.50;1750209;81;21032;-47
2022/08/13 10:04:11;;;;;;;14.18;10.82;;;;;;;24.66;66.50;99264.28;1754350;81;20940;-47
2022/08/13 10:06:38;;;;;;;14.43;10.68;;;;;;;24.71;66.58;99267.68;1760609;81;21573;-47
2022/08/13 10:09:05;;;;;;;12.15;10.38;;;;;;;24.76;66.37;99265.70;1761088;81;21135;-47
2022/08/13 10:11:33;;;;;;;13.60;11.08;;;;;;;24.77;66.10;99262.47;1746130;81;21029;-47
2022/08/13 10:14:00;;;;;;;15.20;10.43;;;;;;;24.78;65.97;99256.31;1738147;81;20941;-47
2022/08/13 10:16:27;;;;;;;12.70;10.72;;;;;;;24.76;65.91;99260.92;1752983;81;21012;-47
2022/08/13 10:18:55;;;;;;;15.03;10.63;;;;;;;24.76;65.71;99258.77;1744834;81;21928;-47
2022/08/13 10:21:22;;;;;;;17.20;11.00;;;;;;;24.71;65.83;99253.81;1740091;81;21242;-47
2022/08/13 10:23:49;;;;;;;13.60;10.40;;;;;;;24.67;65.95;99252.58;1739126;81;21043;-47
2022/08/13 10:26:18;;;;;;;13.95;11.18;;;;;;;24.64;66.21;99252.13;1758428;81;21502;-47
2022/08/13 10:28:47;;;;;;;14.70;11.03;;;;;;;24.63;66.32;99258.28;1759460;81;21056;-47
2022/08/13 10:31:14;;;;;;;13.63;11.63;;;;;;;24.63;66.49;99251.34;1746037;81;21043;-47
2022/08/13 10:33:41;;;;;;;15.68;11.53;;;;;;;24.63;66.59;99254.73;1757164;81;21100;-47
2022/08/13 10:36:08;;;;;;;12.55;11.00;;;;;;;24.62;67.03;99246.25;1730366;81;21752;-47
2022/08/13 10:38:36;;;;;;;14.13;10.70;;;;;;;24.66;67.18;99252.42;1717677;81;21001;-47
2022/08/13 10:41:07;;;;;;;13.58;11.65;;;;;;;24.68;67.09;99250.75;1739060;81;21079;-47
2022/08/13 10:43:41;;;;;;;16.80;11.57;;;;;;;24.71;66.99;99250.44;1744267;81;21532;-47
2022/08/13 10:46:09;;;;;;;13.45;10.72;;;;;;;24.74;66.93;99257.08;1745991;81;21401;-47
2022/08/13 10:48:36;;;;;;;15.25;11.20;;;;;;;24.75;66.98;99253.05;1757453;81;21052;-47
2022/08/13 10:51:03;;;;;;;14.73;11.18;;;;;;;24.76;67.29;99259.54;1744691;81;21562;-47
2022/08/13 10:56:17;;;;;;;13.90;11.20;;;;;;;24.80;67.43;99253.84;1751666;81;21676;-47
2022/08/13 10:58:46;;;;;;;14.28;11.48;;;;;;;24.81;67.38;99262.32;1742452;81;21495;-47
2022/08/13 11:01:15;;;;;;;14.60;10.60;;;;;;;24.84;67.35;99262.78;1749214;81;21066;-47
2022/08/13 11:03:44;;;;;;;19.45;10.75;;;;;;;24.90;67.53;99262.37;1743981;81;20964;-47
2022/08/13 11:06:11;;;;;;;14.25;10.95;;;;;;;24.96;67.52;99261.32;1754640;81;21033;-47
2022/08/13 11:08:38;;;;;;;16.07;12.15;;;;;;;25.03;67.48;99249.91;1735214;81;21063;-47
2022/08/13 11:11:07;;;;;;;14.73;11.18;;;;;;;25.11;67.38;99242.08;1754688;81;21620;-47
2022/08/13 11:13:36;;;;;;;13.10;11.43;;;;;;;25.18;67.00;99243.15;1756286;81;20944;-46
2022/08/13 11:16:54;;;;;;;14.40;11.30;;;;;;;25.31;67.38;99247.96;1743839;81;21315;-46
2022/08/13 11:18:36;;;;;;;15.38;11.08;;;;;;;25.23;67.04;99202.30;1730627;81;21724;-47
2022/08/13 11:21:08;;;;;;;12.40;10.78;;;;;;;25.63;67.24;99238.25;1758226;81;21087;-47
2022/08/13 11:23:36;;;;;;;13.60;11.00;;;;;;;25.82;66.30;99226.50;1749614;81;21821;-47
2022/08/13 11:26:03;;;;;;;16.70;11.85;;;;;;;26.01;65.58;99233.55;1759910;81;21650;-47
2022/08/13 11:28:30;;;;;;;12.93;11.20;;;;;;;26.19;65.71;99229.97;1753046;81;21538;-47
2022/08/13 11:30:57;;;;;;;14.35;10.63;;;;;;;26.42;65.15;99227.12;1747802;81;21017;-47
2022/08/13 11:33:25;;;;;;;13.40;10.98;;;;;;;26.65;64.45;99227.77;1755447;81;21032;-47
2022/08/13 11:35:53;;;;;;;16.52;11.35;;;;;;;26.87;63.96;99228.28;1735243;81;23122;-47
2022/08/13 11:38:21;;;;;;;18.87;11.08;;;;;;;27.09;63.87;99223.20;1733779;81;21204;-47
2022/08/13 11:40:52;;;;;;;17.12;10.95;;;;;;;27.33;62.91;99225.18;1744105;81;21035;-47
2022/08/13 11:43:25;;;;;;;13.40;11.12;;;;;;;27.53;62.68;99223.96;1751291;81;21541;-47
2022/08/13 11:45:52;;;;;;;15.65;11.18;;;;;;;27.76;62.30;99218.94;1749224;81;21583;-47
2022/08/13 11:48:19;;;;;;;13.25;10.88;;;;;;;28.04;61.68;99214.60;1746343;81;21221;-47
2022/08/13 11:50:47;;;;;;;15.48;11.00;;;;;;;28.32;61.19;99211.54;1741934;81;20917;-47
2022/08/13 11:53:15;;;;;;;14.70;10.28;;;;;;;28.59;60.33;99198.63;1750066;81;21181;-47
2022/08/13 11:55:42;;;;;;;12.28;10.70;;;;;;;28.88;59.53;99197.14;1754393;81;21131;-47
2022/08/13 11:58:09;;;;;;;16.77;10.88;;;;;;;29.17;58.65;99197.62;1744538;81;21086;-47
2022/08/13 12:00:38;;;;;;;16.90;11.12;;;;;;;29.39;58.09;99192.19;1754022;81;21158;-47